EGHI/SOU METAR and TAF weather

Enter ICAO airport designator
Station Type Date Time Source
EGHI METAR 2021/08/04 17:50 UTC NOAA

EGHI 041750Z 21008KT 9999 FEW025 19/12 Q1012


Station Type Date Time Source
EGHI Decoded METAR 2021/08/04 17:50 UTC NOAA

Southampton / Weather Centre, United Kingdom (EGHI) 50-54N 001-24W 0M
Aug 04, 2021 - 01:50 PM EDT / 2021.08.04 1750 UTC
Wind: from the SSW (210 degrees) at 9 MPH (8 KT):0
Visibility: greater than 7 mile(s):0
Sky conditions: mostly clear
Temperature: 66 F (19 C)
Dew Point: 53 F (12 C)
Relative Humidity: 63%
Pressure (altimeter): 29.88 in. Hg (1012 hPa)
ob: EGHI 041750Z 21008KT 9999 FEW025 19/12 Q1012
cycle: 18

Station Type Date Time Source
EGHI TAF 2020/02/21 21:54 UTC NOAA

TAF EGHI 210345Z 2021/2123 CNL

Example: see airport list